sensor_id;sensor_type;location;lat;lon;timestamp;pressure;altitude;pressure_sealevel;temperature;humidity
35307;BME280;21420;52.196;21.416;2022-08-21T00:00:19;99920.91;;;20.89;54.71
35307;BME280;21420;52.196;21.416;2022-08-21T00:02:58;99924.77;;;20.83;54.66
35307;BME280;21420;52.196;21.416;2022-08-21T00:05:23;99918.45;;;20.79;54.79
35307;BME280;21420;52.196;21.416;2022-08-21T00:07:50;99917.09;;;20.75;54.83
35307;BME280;21420;52.196;21.416;2022-08-21T00:10:18;99916.17;;;20.70;54.85
35307;BME280;21420;52.196;21.416;2022-08-21T00:12:45;99914.81;;;20.67;54.94
35307;BME280;21420;52.196;21.416;2022-08-21T00:15:16;99912.70;;;20.63;55.00
35307;BME280;21420;52.196;21.416;2022-08-21T00:17:44;99909.72;;;20.62;55.11
35307;BME280;21420;52.196;21.416;2022-08-21T00:20:14;99910.73;;;20.59;55.15
35307;BME280;21420;52.196;21.416;2022-08-21T00:22:40;99913.55;;;20.56;55.15
35307;BME280;21420;52.196;21.416;2022-08-21T00:25:08;99913.41;;;20.51;55.19
35307;BME280;21420;52.196;21.416;2022-08-21T00:27:35;99913.43;;;20.48;55.25
35307;BME280;21420;52.196;21.416;2022-08-21T00:30:03;99907.73;;;20.43;55.31
35307;BME280;21420;52.196;21.416;2022-08-21T00:32:31;99901.81;;;20.37;55.35
35307;BME280;21420;52.196;21.416;2022-08-21T00:34:58;99902.88;;;20.32;55.39
35307;BME280;21420;52.196;21.416;2022-08-21T00:37:24;99903.75;;;20.25;55.40
35307;BME280;21420;52.196;21.416;2022-08-21T00:39:51;99894.88;;;20.18;55.47
35307;BME280;21420;52.196;21.416;2022-08-21T00:42:19;99892.73;;;20.14;55.54
35307;BME280;21420;52.196;21.416;2022-08-21T00:44:48;99886.65;;;20.08;55.57
35307;BME280;21420;52.196;21.416;2022-08-21T00:47:17;99876.39;;;20.01;55.64
35307;BME280;21420;52.196;21.416;2022-08-21T00:49:44;99878.41;;;19.97;55.74
35307;BME280;21420;52.196;21.416;2022-08-21T00:52:14;99874.91;;;19.93;55.80
35307;BME280;21420;52.196;21.416;2022-08-21T00:54:43;99875.33;;;19.88;55.84
35307;BME280;21420;52.196;21.416;2022-08-21T00:57:13;99873.00;;;19.83;55.93
35307;BME280;21420;52.196;21.416;2022-08-21T00:59:44;99869.30;;;19.78;56.01
35307;BME280;21420;52.196;21.416;2022-08-21T01:02:12;99869.92;;;19.73;56.05
35307;BME280;21420;52.196;21.416;2022-08-21T01:04:39;99862.82;;;19.69;56.13
35307;BME280;21420;52.196;21.416;2022-08-21T01:07:05;99863.02;;;19.66;56.19
35307;BME280;21420;52.196;21.416;2022-08-21T01:09:32;99868.59;;;19.63;56.24
35307;BME280;21420;52.196;21.416;2022-08-21T01:11:59;99870.80;;;19.60;56.34
35307;BME280;21420;52.196;21.416;2022-08-21T01:14:26;99866.26;;;19.58;56.42
35307;BME280;21420;52.196;21.416;2022-08-21T01:16:54;99868.27;;;19.53;56.44
35307;BME280;21420;52.196;21.416;2022-08-21T01:19:22;99868.67;;;19.52;56.51
35307;BME280;21420;52.196;21.416;2022-08-21T01:21:49;99868.89;;;19.49;56.57
35307;BME280;21420;52.196;21.416;2022-08-21T01:24:16;99861.19;;;19.45;56.65
35307;BME280;21420;52.196;21.416;2022-08-21T01:26:43;99862.22;;;19.43;56.71
35307;BME280;21420;52.196;21.416;2022-08-21T01:32:08;99856.70;;;19.36;56.79
35307;BME280;21420;52.196;21.416;2022-08-21T01:34:42;99858.31;;;19.33;56.89
35307;BME280;21420;52.196;21.416;2022-08-21T01:37:10;99857.54;;;19.29;56.96
35307;BME280;21420;52.196;21.416;2022-08-21T01:39:39;99861.13;;;19.30;57.06
35307;BME280;21420;52.196;21.416;2022-08-21T01:42:06;99854.19;;;19.30;57.12
35307;BME280;21420;52.196;21.416;2022-08-21T01:44:33;99852.21;;;19.27;57.13
35307;BME280;21420;52.196;21.416;2022-08-21T01:47:06;99848.09;;;19.23;57.16
35307;BME280;21420;52.196;21.416;2022-08-21T01:49:30;99846.72;;;19.20;57.19
35307;BME280;21420;52.196;21.416;2022-08-21T01:51:57;99847.72;;;19.18;57.25
35307;BME280;21420;52.196;21.416;2022-08-21T01:54:23;99844.78;;;19.13;57.30
35307;BME280;21420;52.196;21.416;2022-08-21T01:56:52;99840.66;;;19.09;57.33
35307;BME280;21420;52.196;21.416;2022-08-21T01:59:20;99840.28;;;19.07;57.42
35307;BME280;21420;52.196;21.416;2022-08-21T02:01:47;99836.30;;;19.05;57.50
35307;BME280;21420;52.196;21.416;2022-08-21T02:04:14;99836.34;;;19.01;57.54
35307;BME280;21420;52.196;21.416;2022-08-21T02:06:41;99834.39;;;18.98;57.58
35307;BME280;21420;52.196;21.416;2022-08-21T02:09:08;99834.80;;;18.97;57.67
35307;BME280;21420;52.196;21.416;2022-08-21T02:11:36;99835.02;;;18.94;57.66
35307;BME280;21420;52.196;21.416;2022-08-21T02:14:05;99832.85;;;18.90;57.74
35307;BME280;21420;52.196;21.416;2022-08-21T02:17:00;99838.02;;;18.88;57.79
35307;BME280;21420;52.196;21.416;2022-08-21T02:19:26;99827.31;;;18.86;57.83
35307;BME280;21420;52.196;21.416;2022-08-21T02:21:52;99829.14;;;18.81;57.89
35307;BME280;21420;52.196;21.416;2022-08-21T02:24:18;99815.09;;;18.80;57.98
35307;BME280;21420;52.196;21.416;2022-08-21T02:26:44;99817.27;;;18.77;58.03
35307;BME280;21420;52.196;21.416;2022-08-21T02:29:10;99814.08;;;18.75;58.05
35307;BME280;21420;52.196;21.416;2022-08-21T02:31:37;99822.83;;;18.73;58.10
35307;BME280;21420;52.196;21.416;2022-08-21T02:34:04;99819.45;;;18.70;58.19
35307;BME280;21420;52.196;21.416;2022-08-21T02:36:31;99815.90;;;18.70;58.25
35307;BME280;21420;52.196;21.416;2022-08-21T02:38:57;99813.95;;;18.67;58.25
35307;BME280;21420;52.196;21.416;2022-08-21T02:41:24;99814.73;;;18.64;58.29
35307;BME280;21420;52.196;21.416;2022-08-21T02:43:50;99822.67;;;18.62;58.37
35307;BME280;21420;52.196;21.416;2022-08-21T02:46:19;99818.13;;;18.60;58.42
35307;BME280;21420;52.196;21.416;2022-08-21T02:48:46;99816.38;;;18.58;58.45
35307;BME280;21420;52.196;21.416;2022-08-21T02:51:19;99819.94;;;18.55;58.53
35307;BME280;21420;52.196;21.416;2022-08-21T02:53:44;99818.16;;;18.52;58.60
35307;BME280;21420;52.196;21.416;2022-08-21T02:56:14;99813.04;;;18.51;58.69
35307;BME280;21420;52.196;21.416;2022-08-21T02:58:49;99810.27;;;18.51;58.73
35307;BME280;21420;52.196;21.416;2022-08-21T03:01:15;99799.58;;;18.49;58.76
35307;BME280;21420;52.196;21.416;2022-08-21T03:03:44;99796.41;;;18.47;58.80
35307;BME280;21420;52.196;21.416;2022-08-21T03:06:14;99794.03;;;18.46;58.83
35307;BME280;21420;52.196;21.416;2022-08-21T03:08:42;99798.62;;;18.44;58.86
35307;BME280;21420;52.196;21.416;2022-08-21T03:11:11;99803.95;;;18.43;58.93
35307;BME280;21420;52.196;21.416;2022-08-21T03:13:38;99810.49;;;18.41;58.93
35307;BME280;21420;52.196;21.416;2022-08-21T03:16:05;99809.32;;;18.39;58.99
35307;BME280;21420;52.196;21.416;2022-08-21T03:18:32;99804.17;;;18.37;59.04
35307;BME280;21420;52.196;21.416;2022-08-21T03:20:58;99808.75;;;18.36;59.08
35307;BME280;21420;52.196;21.416;2022-08-21T03:23:25;99808.96;;;18.33;59.16
35307;BME280;21420;52.196;21.416;2022-08-21T03:25:51;99806.98;;;18.30;59.16
35307;BME280;21420;52.196;21.416;2022-08-21T03:28:20;99804.20;;;18.30;59.24
35307;BME280;21420;52.196;21.416;2022-08-21T03:30:49;99806.02;;;18.28;59.26
35307;BME280;21420;52.196;21.416;2022-08-21T03:33:17;99806.02;;;18.28;59.36
35307;BME280;21420;52.196;21.416;2022-08-21T03:35:45;99800.66;;;18.26;59.42
35307;BME280;21420;52.196;21.416;2022-08-21T03:38:14;99799.27;;;18.26;59.51
35307;BME280;21420;52.196;21.416;2022-08-21T03:40:42;99800.08;;;18.23;59.47
35307;BME280;21420;52.196;21.416;2022-08-21T03:43:09;99793.94;;;18.23;59.54
35307;BME280;21420;52.196;21.416;2022-08-21T03:45:37;99793.37;;;18.24;59.61
35307;BME280;21420;52.196;21.416;2022-08-21T03:48:05;99793.94;;;18.23;59.63
35307;BME280;21420;52.196;21.416;2022-08-21T03:50:35;99791.38;;;18.24;59.70
35307;BME280;21420;52.196;21.416;2022-08-21T03:53:03;99800.69;;;18.22;59.72
35307;BME280;21420;52.196;21.416;2022-08-21T03:55:31;99798.09;;;18.23;59.75
35307;BME280;21420;52.196;21.416;2022-08-21T03:57:58;99799.09;;;18.25;59.81
35307;BME280;21420;52.196;21.416;2022-08-21T04:00:24;99801.68;;;18.24;59.81
35307;BME280;21420;52.196;21.416;2022-08-21T04:02:51;99800.47;;;18.25;59.91
35307;BME280;21420;52.196;21.416;2022-08-21T04:05:19;99803.84;;;18.24;59.92
35307;BME280;21420;52.196;21.416;2022-08-21T04:07:47;99805.41;;;18.25;59.98
35307;BME280;21420;52.196;21.416;2022-08-21T04:10:13;99806.59;;;18.28;60.10
35307;BME280;21420;52.196;21.416;2022-08-21T04:12:39;99802.25;;;18.27;60.13
35307;BME280;21420;52.196;21.416;2022-08-21T04:15:06;99797.70;;;18.28;60.21
35307;BME280;21420;52.196;21.416;2022-08-21T04:17:32;99799.05;;;18.32;60.28
35307;BME280;21420;52.196;21.416;2022-08-21T04:19:58;99802.00;;;18.37;60.30
35307;BME280;21420;52.196;21.416;2022-08-21T04:22:24;99797.23;;;18.41;60.33
35307;BME280;21420;52.196;21.416;2022-08-21T04:24:50;99800.79;;;18.45;60.39
35307;BME280;21420;52.196;21.416;2022-08-21T04:27:16;99793.42;;;18.50;60.44
35307;BME280;21420;52.196;21.416;2022-08-21T04:29:42;99802.52;;;18.54;60.43
35307;BME280;21420;52.196;21.416;2022-08-21T04:32:08;99801.31;;;18.59;60.46
35307;BME280;21420;52.196;21.416;2022-08-21T04:34:35;99807.23;;;18.64;60.55
35307;BME280;21420;52.196;21.416;2022-08-21T04:50:08;99794.95;;;19.70;59.76
35307;BME280;21420;52.196;21.416;2022-08-21T04:52:34;99796.02;;;19.61;60.09
35307;BME280;21420;52.196;21.416;2022-08-21T04:55:01;99796.83;;;19.61;60.27
35307;BME280;21420;52.196;21.416;2022-08-21T04:57:27;99795.77;;;19.67;60.42
35307;BME280;21420;52.196;21.416;2022-08-21T04:59:53;99799.88;;;19.74;60.43
35307;BME280;21420;52.196;21.416;2022-08-21T05:02:20;99802.41;;;19.80;60.56
35307;BME280;21420;52.196;21.416;2022-08-21T05:04:50;99794.11;;;19.95;60.85
35307;BME280;21420;52.196;21.416;2022-08-21T05:07:22;99791.27;;;20.18;60.99
35307;BME280;21420;52.196;21.416;2022-08-21T05:09:50;99796.17;;;20.37;60.95
35307;BME280;21420;52.196;21.416;2022-08-21T05:12:17;99802.89;;;20.59;60.97
35307;BME280;21420;52.196;21.416;2022-08-21T05:14:44;99797.48;;;20.75;60.89
35307;BME280;21420;52.196;21.416;2022-08-21T05:17:10;99807.61;;;20.89;60.89
35307;BME280;21420;52.196;21.416;2022-08-21T05:19:36;99805.42;;;21.04;60.63
35307;BME280;21420;52.196;21.416;2022-08-21T05:22:03;99808.16;;;21.08;60.60
35307;BME280;21420;52.196;21.416;2022-08-21T05:24:29;99804.89;;;21.25;60.64
35307;BME280;21420;52.196;21.416;2022-08-21T05:26:55;99807.19;;;21.30;60.46
35307;BME280;21420;52.196;21.416;2022-08-21T05:29:22;99801.59;;;21.45;60.65
35307;BME280;21420;52.196;21.416;2022-08-21T05:31:48;99799.16;;;21.59;60.34
35307;BME280;21420;52.196;21.416;2022-08-21T05:34:20;99799.24;;;21.55;59.95
35307;BME280;21420;52.196;21.416;2022-08-21T05:36:47;99805.34;;;21.58;60.15
35307;BME280;21420;52.196;21.416;2022-08-21T05:39:14;99814.30;;;21.70;60.21
35307;BME280;21420;52.196;21.416;2022-08-21T05:41:40;99809.98;;;21.89;60.31
35307;BME280;21420;52.196;21.416;2022-08-21T05:44:06;99815.22;;;22.07;60.36
35307;BME280;21420;52.196;21.416;2022-08-21T05:46:33;99819.34;;;22.30;60.38
35307;BME280;21420;52.196;21.416;2022-08-21T05:48:59;99822.14;;;22.30;59.79
35307;BME280;21420;52.196;21.416;2022-08-21T05:51:26;99817.65;;;22.44;60.15
35307;BME280;21420;52.196;21.416;2022-08-21T05:53:52;99818.66;;;22.54;59.91
35307;BME280;21420;52.196;21.416;2022-08-21T05:56:18;99821.55;;;22.67;59.65
35307;BME280;21420;52.196;21.416;2022-08-21T05:58:44;99818.17;;;22.68;59.57
35307;BME280;21420;52.196;21.416;2022-08-21T06:01:10;99811.20;;;22.68;59.41
35307;BME280;21420;52.196;21.416;2022-08-21T06:03:39;99812.34;;;22.70;59.29
35307;BME280;21420;52.196;21.416;2022-08-21T06:06:06;99810.34;;;22.87;59.51
35307;BME280;21420;52.196;21.416;2022-08-21T06:08:33;99812.94;;;23.06;59.52
35307;BME280;21420;52.196;21.416;2022-08-21T06:11:00;99817.48;;;23.24;59.59
35307;BME280;21420;52.196;21.416;2022-08-21T06:13:28;99811.00;;;23.52;59.29
35307;BME280;21420;52.196;21.416;2022-08-21T06:16:11;99812.14;;;23.30;58.64
35307;BME280;21420;52.196;21.416;2022-08-21T06:18:38;99812.08;;;23.42;58.93
35307;BME280;21420;52.196;21.416;2022-08-21T06:21:05;99812.31;;;23.39;58.50
35307;BME280;21420;52.196;21.416;2022-08-21T06:23:34;99811.37;;;23.38;58.49
35307;BME280;21420;52.196;21.416;2022-08-21T06:26:02;99818.78;;;23.36;58.22
35307;BME280;21420;52.196;21.416;2022-08-21T06:28:30;99816.33;;;23.30;58.00
35307;BME280;21420;52.196;21.416;2022-08-21T06:30:59;99823.50;;;23.31;58.25
35307;BME280;21420;52.196;21.416;2022-08-21T06:33:26;99826.20;;;23.51;58.33
35307;BME280;21420;52.196;21.416;2022-08-21T06:35:52;99825.56;;;23.68;58.55
35307;BME280;21420;52.196;21.416;2022-08-21T06:38:19;99831.31;;;24.23;58.73
35307;BME280;21420;52.196;21.416;2022-08-21T06:40:45;99827.23;;;24.61;58.81
35307;BME280;21420;52.196;21.416;2022-08-21T06:43:16;99820.83;;;25.20;58.87
35307;BME280;21420;52.196;21.416;2022-08-21T06:45:42;99818.78;;;25.81;58.86
35307;BME280;21420;52.196;21.416;2022-08-21T06:48:09;99824.52;;;26.34;58.43
35307;BME280;21420;52.196;21.416;2022-08-21T06:50:35;99828.45;;;27.04;58.27
35307;BME280;21420;52.196;21.416;2022-08-21T06:53:08;99826.27;;;27.53;57.76
35307;BME280;21420;52.196;21.416;2022-08-21T06:55:36;99824.28;;;27.63;56.90
35307;BME280;21420;52.196;21.416;2022-08-21T06:58:05;99828.02;;;27.78;56.74
35307;BME280;21420;52.196;21.416;2022-08-21T07:00:32;99836.93;;;28.32;57.21
35307;BME280;21420;52.196;21.416;2022-08-21T07:02:59;99832.05;;;29.08;57.38
35307;BME280;21420;52.196;21.416;2022-08-21T07:05:28;99831.19;;;29.50;56.09
35307;BME280;21420;52.196;21.416;2022-08-21T07:07:55;99827.25;;;29.80;55.73
35307;BME280;21420;52.196;21.416;2022-08-21T07:10:23;99834.14;;;30.18;55.82
35307;BME280;21420;52.196;21.416;2022-08-21T07:12:50;99830.78;;;30.29;54.53
35307;BME280;21420;52.196;21.416;2022-08-21T07:15:19;99838.10;;;30.76;55.16
35307;BME280;21420;52.196;21.416;2022-08-21T07:17:45;99833.23;;;31.51;55.32
35307;BME280;21420;52.196;21.416;2022-08-21T07:20:11;99828.47;;;32.14;54.44
35307;BME280;21420;52.196;21.416;2022-08-21T07:22:38;99826.02;;;32.38;54.07
35307;BME280;21420;52.196;21.416;2022-08-21T07:25:07;99832.61;;;32.87;53.53
35307;BME280;21420;52.196;21.416;2022-08-21T07:27:33;99836.02;;;33.29;53.14
35307;BME280;21420;52.196;21.416;2022-08-21T07:30:00;99826.71;;;33.77;52.98
35307;BME280;21420;52.196;21.416;2022-08-21T07:32:26;99829.50;;;34.04;51.63
35307;BME280;21420;52.196;21.416;2022-08-21T07:34:52;99830.27;;;33.99;51.64
35307;BME280;21420;52.196;21.416;2022-08-21T07:37:18;99821.45;;;34.35;51.26
35307;BME280;21420;52.196;21.416;2022-08-21T07:39:45;99821.48;;;34.52;50.34
35307;BME280;21420;52.196;21.416;2022-08-21T07:42:13;99815.91;;;34.25;49.98
35307;BME280;21420;52.196;21.416;2022-08-21T07:44:39;99813.56;;;34.29;50.49
35307;BME280;21420;52.196;21.416;2022-08-21T07:47:05;99810.87;;;34.53;50.36
35307;BME280;21420;52.196;21.416;2022-08-21T07:49:32;99811.92;;;34.95;50.24
35307;BME280;21420;52.196;21.416;2022-08-21T07:51:58;99812.03;;;34.96;48.85
35307;BME280;21420;52.196;21.416;2022-08-21T07:54:25;99806.24;;;34.78;48.48
35307;BME280;21420;52.196;21.416;2022-08-21T07:56:52;99805.83;;;34.92;48.79
35307;BME280;21420;52.196;21.416;2022-08-21T07:59:18;99801.80;;;35.22;48.44
35307;BME280;21420;52.196;21.416;2022-08-21T08:01:44;99798.08;;;35.50;48.39
35307;BME280;21420;52.196;21.416;2022-08-21T08:04:11;99804.36;;;35.66;47.72
35307;BME280;21420;52.196;21.416;2022-08-21T08:06:37;99797.02;;;35.88;48.06
35307;BME280;21420;52.196;21.416;2022-08-21T08:09:03;99804.88;;;36.35;47.93
35307;BME280;21420;52.196;21.416;2022-08-21T08:11:30;99799.62;;;36.63;47.24
35307;BME280;21420;52.196;21.416;2022-08-21T08:13:56;99796.75;;;36.93;47.38
35307;BME280;21420;52.196;21.416;2022-08-21T08:16:25;99793.66;;;37.90;47.14
35307;BME280;21420;52.196;21.416;2022-08-21T08:18:52;99793.66;;;37.90;47.14
35307;BME280;21420;52.196;21.416;2022-08-21T08:21:20;99792.42;;;38.24;46.45
35307;BME280;21420;52.196;21.416;2022-08-21T08:23:47;99794.87;;;38.72;46.33
35307;BME280;21420;52.196;21.416;2022-08-21T08:26:13;99790.14;;;38.74;45.23
35307;BME280;21420;52.196;21.416;2022-08-21T08:28:41;99788.04;;;38.68;44.33
35307;BME280;21420;52.196;21.416;2022-08-21T08:31:08;99782.45;;;38.44;43.48
35307;BME280;21420;52.196;21.416;2022-08-21T08:33:35;99791.93;;;38.13;43.55
35307;BME280;21420;52.196;21.416;2022-08-21T08:36:01;99794.19;;;38.01;42.43
35307;BME280;21420;52.196;21.416;2022-08-21T08:38:28;99785.32;;;38.11;43.96
35307;BME280;21420;52.196;21.416;2022-08-21T08:41:18;99781.13;;;38.38;43.35
35307;BME280;21420;52.196;21.416;2022-08-21T08:44:01;99783.73;;;37.85;41.43
35307;BME280;21420;52.196;21.416;2022-08-21T08:46:46;99771.55;;;36.85;41.13
35307;BME280;21420;52.196;21.416;2022-08-21T08:49:13;99770.17;;;37.41;42.29
35307;BME280;21420;52.196;21.416;2022-08-21T08:52:02;99775.80;;;37.97;43.04
35307;BME280;21420;52.196;21.416;2022-08-21T08:54:43;99767.76;;;37.95;42.93
35307;BME280;21420;52.196;21.416;2022-08-21T08:57:20;99773.09;;;38.04;42.36
35307;BME280;21420;52.196;21.416;2022-08-21T08:59:51;99774.77;;;38.45;43.00
35307;BME280;21420;52.196;21.416;2022-08-21T09:02:21;99777.78;;;38.99;42.18
35307;BME280;21420;52.196;21.416;2022-08-21T09:04:50;99782.75;;;38.27;41.18
35307;BME280;21420;52.196;21.416;2022-08-21T09:12:56;99776.70;;;38.24;41.05
35307;BME280;21420;52.196;21.416;2022-08-21T09:27:18;99771.38;;;36.89;40.64
35307;BME280;21420;52.196;21.416;2022-08-21T09:29:48;99764.75;;;36.15;40.93
35307;BME280;21420;52.196;21.416;2022-08-21T09:32:23;99773.68;;;36.79;40.69
35307;BME280;21420;52.196;21.416;2022-08-21T09:35:10;99766.72;;;36.08;39.95
35307;BME280;21420;52.196;21.416;2022-08-21T09:43:18;99773.92;;;37.05;40.73
35307;BME280;21420;52.196;21.416;2022-08-21T09:45:48;99770.52;;;37.56;41.00
35307;BME280;21420;52.196;21.416;2022-08-21T09:48:18;99770.34;;;38.31;40.73
35307;BME280;21420;52.196;21.416;2022-08-21T09:50:48;99768.79;;;37.47;39.63
35307;BME280;21420;52.196;21.416;2022-08-21T09:53:28;99769.44;;;37.16;40.01
35307;BME280;21420;52.196;21.416;2022-08-21T09:55:59;99768.58;;;36.96;38.49
35307;BME280;21420;52.196;21.416;2022-08-21T09:58:47;99765.13;;;36.79;39.75
35307;BME280;21420;52.196;21.416;2022-08-21T10:01:21;99759.77;;;37.31;39.73
35307;BME280;21420;52.196;21.416;2022-08-21T10:03:49;99761.91;;;37.94;39.83
35307;BME280;21420;52.196;21.416;2022-08-21T10:06:22;99758.08;;;38.10;39.68
35307;BME280;21420;52.196;21.416;2022-08-21T10:08:50;99762.03;;;38.46;39.58
35307;BME280;21420;52.196;21.416;2022-08-21T10:11:17;99755.52;;;38.85;39.60
35307;BME280;21420;52.196;21.416;2022-08-21T10:13:59;99755.95;;;38.76;38.86
35307;BME280;21420;52.196;21.416;2022-08-21T10:30:33;99750.19;;;38.49;37.86
35307;BME280;21420;52.196;21.416;2022-08-21T10:36:25;99743.98;;;39.44;37.35
35307;BME280;21420;52.196;21.416;2022-08-21T10:41:52;99747.07;;;39.06;37.27
35307;BME280;21420;52.196;21.416;2022-08-21T10:44:49;99755.86;;;39.48;36.90
35307;BME280;21420;52.196;21.416;2022-08-21T10:53:09;99745.17;;;39.35;36.16
35307;BME280;21420;52.196;21.416;2022-08-21T10:55:59;99753.25;;;38.19;36.28
35307;BME280;21420;52.196;21.416;2022-08-21T11:01:23;99752.72;;;37.76;36.88
35307;BME280;21420;52.196;21.416;2022-08-21T11:03:54;99745.25;;;37.73;36.68
35307;BME280;21420;52.196;21.416;2022-08-21T11:06:27;99742.39;;;37.22;35.61
35307;BME280;21420;52.196;21.416;2022-08-21T11:08:58;99753.33;;;37.18;36.86
35307;BME280;21420;52.196;21.416;2022-08-21T11:11:41;99748.91;;;37.48;36.18
35307;BME280;21420;52.196;21.416;2022-08-21T11:17:09;99739.51;;;38.10;36.07
35307;BME280;21420;52.196;21.416;2022-08-21T11:19:59;99738.10;;;37.98;36.52
35307;BME280;21420;52.196;21.416;2022-08-21T11:22:33;99728.19;;;38.50;37.16
35307;BME280;21420;52.196;21.416;2022-08-21T11:25:23;99740.14;;;39.14;36.98
35307;BME280;21420;52.196;21.416;2022-08-21T11:48:16;99742.15;;;36.96;36.53
35307;BME280;21420;52.196;21.416;2022-08-21T11:50:51;99735.97;;;37.47;36.91
35307;BME280;21420;52.196;21.416;2022-08-21T11:56:03;99740.22;;;37.28;35.93
35307;BME280;21420;52.196;21.416;2022-08-21T12:01:17;99733.39;;;37.75;36.23
35307;BME280;21420;52.196;21.416;2022-08-21T12:03:58;99730.37;;;37.86;36.02
35307;BME280;21420;52.196;21.416;2022-08-21T12:06:40;99730.17;;;38.17;36.39
35307;BME280;21420;52.196;21.416;2022-08-21T12:14:48;99730.14;;;38.10;35.08
35307;BME280;21420;52.196;21.416;2022-08-21T12:17:19;99731.41;;;37.39;34.68
35307;BME280;21420;52.196;21.416;2022-08-21T12:19:59;99726.04;;;37.11;35.24
35307;BME280;21420;52.196;21.416;2022-08-21T12:22:39;99730.90;;;37.03;35.65
35307;BME280;21420;52.196;21.416;2022-08-21T12:25:10;99732.75;;;37.13;35.44
35307;BME280;21420;52.196;21.416;2022-08-21T12:28:07;99729.92;;;36.88;35.60
35307;BME280;21420;52.196;21.416;2022-08-21T12:33:09;99720.48;;;36.57;35.83
35307;BME280;21420;52.196;21.416;2022-08-21T12:35:48;99727.30;;;36.78;36.15
35307;BME280;21420;52.196;21.416;2022-08-21T12:38:21;99737.05;;;36.58;35.43
35307;BME280;21420;52.196;21.416;2022-08-21T12:41:06;99729.74;;;36.20;35.15
35307;BME280;21420;52.196;21.416;2022-08-21T12:43:46;99724.19;;;35.56;34.77
35307;BME280;21420;52.196;21.416;2022-08-21T12:46:22;99729.07;;;34.92;35.48
35307;BME280;21420;52.196;21.416;2022-08-21T12:49:15;99725.38;;;35.25;36.15
35307;BME280;21420;52.196;21.416;2022-08-21T12:54:30;99725.45;;;34.91;35.63
35307;BME280;21420;52.196;21.416;2022-08-21T12:57:02;99726.11;;;34.91;36.37
35307;BME280;21420;52.196;21.416;2022-08-21T12:59:29;99723.55;;;35.28;36.33
35307;BME280;21420;52.196;21.416;2022-08-21T13:01:59;99729.64;;;35.19;36.10
35307;BME280;21420;52.196;21.416;2022-08-21T13:04:39;99737.13;;;34.59;35.47
35307;BME280;21420;52.196;21.416;2022-08-21T13:07:13;99723.95;;;34.11;36.05
35307;BME280;21420;52.196;21.416;2022-08-21T13:09:46;99725.27;;;34.33;36.68
35307;BME280;21420;52.196;21.416;2022-08-21T13:12:20;99725.00;;;34.42;36.61
35307;BME280;21420;52.196;21.416;2022-08-21T13:14:48;99727.81;;;34.08;36.31
35307;BME280;21420;52.196;21.416;2022-08-21T13:17:22;99731.11;;;33.73;36.37
35307;BME280;21420;52.196;21.416;2022-08-21T13:22:30;99735.30;;;33.56;37.03
35307;BME280;21420;52.196;21.416;2022-08-21T13:24:57;99722.98;;;33.65;36.85
35307;BME280;21420;52.196;21.416;2022-08-21T13:27:29;99724.81;;;33.73;36.92
35307;BME280;21420;52.196;21.416;2022-08-21T13:30:17;99727.79;;;33.80;36.97
35307;BME280;21420;52.196;21.416;2022-08-21T13:32:49;99724.30;;;33.86;37.10
35307;BME280;21420;52.196;21.416;2022-08-21T13:35:30;99727.79;;;33.80;36.57
35307;BME280;21420;52.196;21.416;2022-08-21T13:37:58;99721.89;;;33.51;36.83
35307;BME280;21420;52.196;21.416;2022-08-21T13:40:38;99723.39;;;33.41;36.77
35307;BME280;21420;52.196;21.416;2022-08-21T13:43:00;99721.86;;;33.45;37.12
35307;BME280;21420;52.196;21.416;2022-08-21T13:45:32;99726.20;;;33.62;37.14
35307;BME280;21420;52.196;21.416;2022-08-21T13:48:01;99723.98;;;33.62;37.17
35307;BME280;21420;52.196;21.416;2022-08-21T13:50:29;99725.07;;;33.43;37.10
35307;BME280;21420;52.196;21.416;2022-08-21T13:52:59;99723.84;;;33.28;37.30
35307;BME280;21420;52.196;21.416;2022-08-21T13:55:35;99726.43;;;33.04;37.22
35307;BME280;21420;52.196;21.416;2022-08-21T13:58:04;99715.06;;;33.20;37.44
35307;BME280;21420;52.196;21.416;2022-08-21T14:00:33;99718.55;;;33.20;37.19
35307;BME280;21420;52.196;21.416;2022-08-21T14:03:08;99717.33;;;32.89;36.64
35307;BME280;21420;52.196;21.416;2022-08-21T14:05:38;99720.48;;;32.81;37.32
35307;BME280;21420;52.196;21.416;2022-08-21T14:08:20;99721.97;;;32.92;37.53
35307;BME280;21420;52.196;21.416;2022-08-21T14:10:50;99712.41;;;33.05;37.48
35307;BME280;21420;52.196;21.416;2022-08-21T14:13:42;99714.62;;;33.06;37.39
35307;BME280;21420;52.196;21.416;2022-08-21T14:16:22;99713.20;;;33.06;37.52
35307;BME280;21420;52.196;21.416;2022-08-21T14:21:39;99710.38;;;32.68;37.23
35307;BME280;21420;52.196;21.416;2022-08-21T14:24:11;99710.42;;;32.42;37.13
35307;BME280;21420;52.196;21.416;2022-08-21T14:29:26;99714.06;;;32.27;37.16
35307;BME280;21420;52.196;21.416;2022-08-21T14:31:57;99710.92;;;31.83;37.23
35307;BME280;21420;52.196;21.416;2022-08-21T14:34:26;99715.89;;;31.78;37.79
35307;BME280;21420;52.196;21.416;2022-08-21T14:36:54;99721.55;;;31.78;37.94
35307;BME280;21420;52.196;21.416;2022-08-21T14:39:21;99712.15;;;31.66;37.85
35307;BME280;21420;52.196;21.416;2022-08-21T14:41:51;99713.80;;;31.62;38.08
35307;BME280;21420;52.196;21.416;2022-08-21T14:44:21;99713.93;;;31.63;38.23
35307;BME280;21420;52.196;21.416;2022-08-21T14:46:49;99711.42;;;31.45;37.94
35307;BME280;21420;52.196;21.416;2022-08-21T14:49:15;99707.72;;;31.18;37.87
35307;BME280;21420;52.196;21.416;2022-08-21T14:51:42;99707.66;;;30.92;37.94
35307;BME280;21420;52.196;21.416;2022-08-21T14:54:09;99699.80;;;30.56;38.18
35307;BME280;21420;52.196;21.416;2022-08-21T14:56:35;99710.98;;;30.40;38.33
35307;BME280;21420;52.196;21.416;2022-08-21T14:59:06;99712.66;;;30.13;38.54